sensor_id;sensor_type;location;lat;lon;timestamp;P1;durP1;ratioP1;P2;durP2;ratioP2
5912;SDS011;2982;42.684;23.356;2024-01-06T00:00:34;40.67;;;22.30;;
5912;SDS011;2982;42.684;23.356;2024-01-06T00:03:01;50.87;;;25.60;;
5912;SDS011;2982;42.684;23.356;2024-01-06T00:05:26;47.67;;;23.77;;
5912;SDS011;2982;42.684;23.356;2024-01-06T00:07:52;48.60;;;24.07;;
5912;SDS011;2982;42.684;23.356;2024-01-06T00:10:17;51.03;;;24.83;;
5912;SDS011;2982;42.684;23.356;2024-01-06T00:12:42;65.17;;;24.90;;
5912;SDS011;2982;42.684;23.356;2024-01-06T00:15:07;47.13;;;24.80;;
5912;SDS011;2982;42.684;23.356;2024-01-06T00:17:51;40.40;;;23.63;;
5912;SDS011;2982;42.684;23.356;2024-01-06T00:20:16;49.07;;;24.23;;
5912;SDS011;2982;42.684;23.356;2024-01-06T00:22:41;43.37;;;24.10;;
5912;SDS011;2982;42.684;23.356;2024-01-06T00:25:07;51.23;;;26.37;;
5912;SDS011;2982;42.684;23.356;2024-01-06T00:27:32;53.07;;;27.07;;
5912;SDS011;2982;42.684;23.356;2024-01-06T00:29:59;48.97;;;26.90;;
5912;SDS011;2982;42.684;23.356;2024-01-06T00:32:24;53.33;;;26.47;;
5912;SDS011;2982;42.684;23.356;2024-01-06T00:34:53;47.10;;;27.40;;
5912;SDS011;2982;42.684;23.356;2024-01-06T00:37:19;46.93;;;27.27;;
5912;SDS011;2982;42.684;23.356;2024-01-06T00:39:44;44.13;;;25.57;;
5912;SDS011;2982;42.684;23.356;2024-01-06T00:42:09;53.47;;;26.77;;
5912;SDS011;2982;42.684;23.356;2024-01-06T00:44:35;52.13;;;26.33;;
5912;SDS011;2982;42.684;23.356;2024-01-06T00:47:00;68.07;;;30.47;;
5912;SDS011;2982;42.684;23.356;2024-01-06T00:49:26;60.90;;;31.27;;
5912;SDS011;2982;42.684;23.356;2024-01-06T00:51:51;50.93;;;30.30;;
5912;SDS011;2982;42.684;23.356;2024-01-06T00:54:16;55.47;;;28.53;;
5912;SDS011;2982;42.684;23.356;2024-01-06T00:56:41;54.67;;;29.47;;
5912;SDS011;2982;42.684;23.356;2024-01-06T00:59:06;56.20;;;30.23;;
5912;SDS011;2982;42.684;23.356;2024-01-06T01:01:32;60.53;;;28.73;;
5912;SDS011;2982;42.684;23.356;2024-01-06T01:03:57;52.97;;;29.23;;
5912;SDS011;2982;42.684;23.356;2024-01-06T01:06:22;60.97;;;30.43;;
5912;SDS011;2982;42.684;23.356;2024-01-06T01:08:47;61.57;;;31.20;;
5912;SDS011;2982;42.684;23.356;2024-01-06T01:11:12;55.40;;;29.57;;
5912;SDS011;2982;42.684;23.356;2024-01-06T01:13:37;52.90;;;29.50;;
5912;SDS011;2982;42.684;23.356;2024-01-06T01:16:03;57.30;;;30.57;;
5912;SDS011;2982;42.684;23.356;2024-01-06T01:18:28;59.63;;;29.73;;
5912;SDS011;2982;42.684;23.356;2024-01-06T01:20:53;55.33;;;30.33;;
5912;SDS011;2982;42.684;23.356;2024-01-06T01:23:18;60.87;;;29.10;;
5912;SDS011;2982;42.684;23.356;2024-01-06T01:25:43;52.20;;;29.53;;
5912;SDS011;2982;42.684;23.356;2024-01-06T01:28:09;52.30;;;27.83;;
5912;SDS011;2982;42.684;23.356;2024-01-06T01:30:34;58.63;;;29.93;;
5912;SDS011;2982;42.684;23.356;2024-01-06T01:32:59;59.13;;;30.67;;
5912;SDS011;2982;42.684;23.356;2024-01-06T01:35:24;49.27;;;28.47;;
5912;SDS011;2982;42.684;23.356;2024-01-06T01:37:50;51.57;;;30.83;;
5912;SDS011;2982;42.684;23.356;2024-01-06T01:40:15;52.33;;;30.53;;
5912;SDS011;2982;42.684;23.356;2024-01-06T01:42:41;53.23;;;31.20;;
5912;SDS011;2982;42.684;23.356;2024-01-06T01:45:06;58.40;;;30.53;;
5912;SDS011;2982;42.684;23.356;2024-01-06T01:47:31;63.17;;;30.10;;
5912;SDS011;2982;42.684;23.356;2024-01-06T01:49:57;58.43;;;29.27;;
5912;SDS011;2982;42.684;23.356;2024-01-06T01:52:22;61.37;;;29.23;;
5912;SDS011;2982;42.684;23.356;2024-01-06T01:54:47;62.20;;;31.80;;
5912;SDS011;2982;42.684;23.356;2024-01-06T01:57:13;51.93;;;28.50;;
5912;SDS011;2982;42.684;23.356;2024-01-06T01:59:39;58.53;;;32.60;;
5912;SDS011;2982;42.684;23.356;2024-01-06T02:02:04;61.70;;;30.20;;
5912;SDS011;2982;42.684;23.356;2024-01-06T02:04:30;59.00;;;30.33;;
5912;SDS011;2982;42.684;23.356;2024-01-06T02:06:55;56.03;;;29.40;;
5912;SDS011;2982;42.684;23.356;2024-01-06T02:09:20;59.87;;;30.87;;
5912;SDS011;2982;42.684;23.356;2024-01-06T02:11:45;61.20;;;31.70;;
5912;SDS011;2982;42.684;23.356;2024-01-06T02:14:10;57.17;;;31.13;;
5912;SDS011;2982;42.684;23.356;2024-01-06T02:16:36;56.60;;;29.77;;
5912;SDS011;2982;42.684;23.356;2024-01-06T02:19:01;51.13;;;29.43;;
5912;SDS011;2982;42.684;23.356;2024-01-06T02:21:28;52.57;;;28.80;;
5912;SDS011;2982;42.684;23.356;2024-01-06T02:23:56;63.53;;;30.53;;
5912;SDS011;2982;42.684;23.356;2024-01-06T02:26:21;56.53;;;31.77;;
5912;SDS011;2982;42.684;23.356;2024-01-06T02:28:46;55.97;;;30.50;;
5912;SDS011;2982;42.684;23.356;2024-01-06T02:31:12;60.23;;;32.53;;
5912;SDS011;2982;42.684;23.356;2024-01-06T02:33:37;62.13;;;31.43;;
5912;SDS011;2982;42.684;23.356;2024-01-06T02:36:02;59.57;;;32.20;;
5912;SDS011;2982;42.684;23.356;2024-01-06T02:38:27;52.63;;;29.70;;
5912;SDS011;2982;42.684;23.356;2024-01-06T02:40:52;62.43;;;30.70;;
5912;SDS011;2982;42.684;23.356;2024-01-06T02:43:18;47.70;;;30.00;;
5912;SDS011;2982;42.684;23.356;2024-01-06T02:45:43;52.97;;;27.07;;
5912;SDS011;2982;42.684;23.356;2024-01-06T02:48:08;45.17;;;26.97;;
5912;SDS011;2982;42.684;23.356;2024-01-06T02:50:33;45.27;;;26.93;;
5912;SDS011;2982;42.684;23.356;2024-01-06T02:52:58;43.80;;;25.87;;
5912;SDS011;2982;42.684;23.356;2024-01-06T02:55:24;42.27;;;24.17;;
5912;SDS011;2982;42.684;23.356;2024-01-06T02:57:49;37.23;;;21.33;;
5912;SDS011;2982;42.684;23.356;2024-01-06T03:00:14;38.70;;;22.10;;
5912;SDS011;2982;42.684;23.356;2024-01-06T03:02:39;33.27;;;21.07;;
5912;SDS011;2982;42.684;23.356;2024-01-06T03:05:05;27.07;;;17.50;;
5912;SDS011;2982;42.684;23.356;2024-01-06T03:07:30;43.00;;;20.00;;
5912;SDS011;2982;42.684;23.356;2024-01-06T03:09:55;34.30;;;18.53;;
5912;SDS011;2982;42.684;23.356;2024-01-06T03:12:21;27.43;;;16.70;;
5912;SDS011;2982;42.684;23.356;2024-01-06T03:14:46;27.93;;;17.07;;
5912;SDS011;2982;42.684;23.356;2024-01-06T03:17:11;30.70;;;18.30;;
5912;SDS011;2982;42.684;23.356;2024-01-06T03:19:36;27.37;;;17.73;;
5912;SDS011;2982;42.684;23.356;2024-01-06T03:22:02;27.90;;;16.10;;
5912;SDS011;2982;42.684;23.356;2024-01-06T03:24:27;25.53;;;15.50;;
5912;SDS011;2982;42.684;23.356;2024-01-06T03:26:52;22.63;;;15.13;;
5912;SDS011;2982;42.684;23.356;2024-01-06T03:29:18;24.97;;;14.30;;
5912;SDS011;2982;42.684;23.356;2024-01-06T03:31:43;27.00;;;13.90;;
5912;SDS011;2982;42.684;23.356;2024-01-06T03:34:09;25.17;;;13.83;;
5912;SDS011;2982;42.684;23.356;2024-01-06T03:36:34;26.33;;;14.07;;
5912;SDS011;2982;42.684;23.356;2024-01-06T03:38:59;25.00;;;15.30;;
5912;SDS011;2982;42.684;23.356;2024-01-06T03:41:24;20.70;;;13.70;;
5912;SDS011;2982;42.684;23.356;2024-01-06T03:43:50;24.47;;;13.20;;
5912;SDS011;2982;42.684;23.356;2024-01-06T03:46:15;29.93;;;15.43;;
5912;SDS011;2982;42.684;23.356;2024-01-06T03:48:40;21.47;;;13.70;;
5912;SDS011;2982;42.684;23.356;2024-01-06T03:51:05;21.73;;;11.87;;
5912;SDS011;2982;42.684;23.356;2024-01-06T03:53:31;26.60;;;13.50;;
5912;SDS011;2982;42.684;23.356;2024-01-06T03:55:56;20.43;;;12.60;;
5912;SDS011;2982;42.684;23.356;2024-01-06T03:58:21;22.63;;;13.27;;
5912;SDS011;2982;42.684;23.356;2024-01-06T04:00:46;20.33;;;12.80;;
5912;SDS011;2982;42.684;23.356;2024-01-06T04:03:12;21.30;;;12.17;;
5912;SDS011;2982;42.684;23.356;2024-01-06T04:05:37;21.03;;;13.47;;
5912;SDS011;2982;42.684;23.356;2024-01-06T04:08:02;24.03;;;13.47;;
5912;SDS011;2982;42.684;23.356;2024-01-06T04:10:27;19.73;;;12.87;;
5912;SDS011;2982;42.684;23.356;2024-01-06T04:12:53;19.57;;;12.47;;
5912;SDS011;2982;42.684;23.356;2024-01-06T04:15:18;21.23;;;12.43;;
5912;SDS011;2982;42.684;23.356;2024-01-06T04:17:43;18.93;;;13.30;;
5912;SDS011;2982;42.684;23.356;2024-01-06T04:20:09;19.80;;;13.30;;
5912;SDS011;2982;42.684;23.356;2024-01-06T04:22:34;19.33;;;13.40;;
5912;SDS011;2982;42.684;23.356;2024-01-06T04:24:59;23.20;;;13.93;;
5912;SDS011;2982;42.684;23.356;2024-01-06T04:27:24;25.93;;;13.83;;
5912;SDS011;2982;42.684;23.356;2024-01-06T04:29:50;21.97;;;13.93;;
5912;SDS011;2982;42.684;23.356;2024-01-06T04:32:15;22.03;;;13.60;;
5912;SDS011;2982;42.684;23.356;2024-01-06T04:34:40;25.93;;;14.87;;
5912;SDS011;2982;42.684;23.356;2024-01-06T04:37:05;25.50;;;15.17;;
5912;SDS011;2982;42.684;23.356;2024-01-06T04:39:30;30.20;;;15.07;;
5912;SDS011;2982;42.684;23.356;2024-01-06T04:41:56;25.10;;;13.80;;
5912;SDS011;2982;42.684;23.356;2024-01-06T04:44:21;23.07;;;15.10;;
5912;SDS011;2982;42.684;23.356;2024-01-06T04:46:46;22.00;;;13.97;;
5912;SDS011;2982;42.684;23.356;2024-01-06T04:49:11;22.60;;;13.63;;
5912;SDS011;2982;42.684;23.356;2024-01-06T04:51:37;20.57;;;13.10;;
5912;SDS011;2982;42.684;23.356;2024-01-06T04:54:02;20.70;;;11.30;;
5912;SDS011;2982;42.684;23.356;2024-01-06T04:56:27;10.63;;;7.00;;
5912;SDS011;2982;42.684;23.356;2024-01-06T04:58:52;11.67;;;7.43;;
5912;SDS011;2982;42.684;23.356;2024-01-06T05:01:20;13.77;;;9.30;;
5912;SDS011;2982;42.684;23.356;2024-01-06T05:03:45;10.83;;;8.30;;
5912;SDS011;2982;42.684;23.356;2024-01-06T05:06:10;12.73;;;7.50;;
5912;SDS011;2982;42.684;23.356;2024-01-06T05:08:36;10.23;;;7.57;;
5912;SDS011;2982;42.684;23.356;2024-01-06T05:11:01;8.80;;;6.87;;
5912;SDS011;2982;42.684;23.356;2024-01-06T05:13:26;7.37;;;5.90;;
5912;SDS011;2982;42.684;23.356;2024-01-06T05:15:51;11.37;;;6.97;;
5912;SDS011;2982;42.684;23.356;2024-01-06T05:18:17;9.27;;;5.90;;
5912;SDS011;2982;42.684;23.356;2024-01-06T05:20:42;7.17;;;5.83;;
5912;SDS011;2982;42.684;23.356;2024-01-06T05:23:07;11.63;;;5.27;;
5912;SDS011;2982;42.684;23.356;2024-01-06T05:25:32;8.17;;;5.17;;
5912;SDS011;2982;42.684;23.356;2024-01-06T05:27:58;5.83;;;5.23;;
5912;SDS011;2982;42.684;23.356;2024-01-06T05:30:23;4.90;;;4.50;;
5912;SDS011;2982;42.684;23.356;2024-01-06T05:32:48;6.37;;;4.93;;
5912;SDS011;2982;42.684;23.356;2024-01-06T05:35:15;5.60;;;4.97;;
5912;SDS011;2982;42.684;23.356;2024-01-06T05:37:40;4.70;;;3.90;;
5912;SDS011;2982;42.684;23.356;2024-01-06T05:40:10;8.20;;;4.27;;
5912;SDS011;2982;42.684;23.356;2024-01-06T05:42:35;6.90;;;4.43;;
5912;SDS011;2982;42.684;23.356;2024-01-06T05:45:00;5.73;;;4.57;;
5912;SDS011;2982;42.684;23.356;2024-01-06T05:47:25;5.97;;;4.93;;
5912;SDS011;2982;42.684;23.356;2024-01-06T05:49:52;8.13;;;4.87;;
5912;SDS011;2982;42.684;23.356;2024-01-06T05:52:22;7.10;;;4.47;;
5912;SDS011;2982;42.684;23.356;2024-01-06T05:55:07;5.83;;;4.53;;
5912;SDS011;2982;42.684;23.356;2024-01-06T05:57:34;6.93;;;4.10;;
5912;SDS011;2982;42.684;23.356;2024-01-06T06:00:19;4.80;;;4.30;;
5912;SDS011;2982;42.684;23.356;2024-01-06T06:02:57;6.97;;;4.50;;
5912;SDS011;2982;42.684;23.356;2024-01-06T06:05:31;6.70;;;4.90;;
5912;SDS011;2982;42.684;23.356;2024-01-06T06:07:56;4.83;;;4.33;;
5912;SDS011;2982;42.684;23.356;2024-01-06T06:10:22;6.37;;;4.43;;
5912;SDS011;2982;42.684;23.356;2024-01-06T06:12:47;5.40;;;4.20;;
5912;SDS011;2982;42.684;23.356;2024-01-06T06:15:20;4.97;;;4.20;;
5912;SDS011;2982;42.684;23.356;2024-01-06T06:17:46;4.37;;;4.03;;
5912;SDS011;2982;42.684;23.356;2024-01-06T06:20:12;4.97;;;3.97;;
5912;SDS011;2982;42.684;23.356;2024-01-06T06:22:37;4.80;;;4.30;;
5912;SDS011;2982;42.684;23.356;2024-01-06T06:25:02;4.63;;;4.23;;
5912;SDS011;2982;42.684;23.356;2024-01-06T06:27:28;6.67;;;4.10;;
5912;SDS011;2982;42.684;23.356;2024-01-06T06:29:54;6.17;;;3.97;;
5912;SDS011;2982;42.684;23.356;2024-01-06T06:32:19;6.17;;;4.17;;
5912;SDS011;2982;42.684;23.356;2024-01-06T06:34:44;4.50;;;3.20;;
5912;SDS011;2982;42.684;23.356;2024-01-06T06:37:11;6.73;;;3.87;;
5912;SDS011;2982;42.684;23.356;2024-01-06T06:39:45;8.50;;;4.77;;
5912;SDS011;2982;42.684;23.356;2024-01-06T06:42:11;4.73;;;4.23;;
5912;SDS011;2982;42.684;23.356;2024-01-06T06:44:57;6.33;;;4.20;;
5912;SDS011;2982;42.684;23.356;2024-01-06T06:47:22;5.73;;;4.50;;
5912;SDS011;2982;42.684;23.356;2024-01-06T06:49:47;6.03;;;4.03;;
5912;SDS011;2982;42.684;23.356;2024-01-06T06:52:13;5.73;;;4.37;;
5912;SDS011;2982;42.684;23.356;2024-01-06T06:54:38;10.27;;;4.63;;
5912;SDS011;2982;42.684;23.356;2024-01-06T06:57:13;10.73;;;4.67;;
5912;SDS011;2982;42.684;23.356;2024-01-06T06:59:41;8.83;;;4.70;;
5912;SDS011;2982;42.684;23.356;2024-01-06T07:02:07;9.97;;;4.80;;
5912;SDS011;2982;42.684;23.356;2024-01-06T07:04:32;9.03;;;4.73;;
5912;SDS011;2982;42.684;23.356;2024-01-06T07:06:57;4.20;;;3.70;;
5912;SDS011;2982;42.684;23.356;2024-01-06T07:09:23;6.17;;;5.10;;
5912;SDS011;2982;42.684;23.356;2024-01-06T07:11:49;6.70;;;4.70;;
5912;SDS011;2982;42.684;23.356;2024-01-06T07:14:14;6.00;;;4.93;;
5912;SDS011;2982;42.684;23.356;2024-01-06T07:16:40;5.67;;;4.67;;
5912;SDS011;2982;42.684;23.356;2024-01-06T07:19:05;15.77;;;5.47;;
5912;SDS011;2982;42.684;23.356;2024-01-06T07:21:31;10.10;;;4.83;;
5912;SDS011;2982;42.684;23.356;2024-01-06T07:23:56;7.50;;;5.50;;
5912;SDS011;2982;42.684;23.356;2024-01-06T07:26:21;11.43;;;5.57;;
5912;SDS011;2982;42.684;23.356;2024-01-06T07:28:47;9.53;;;5.43;;
5912;SDS011;2982;42.684;23.356;2024-01-06T07:31:13;13.83;;;5.63;;
5912;SDS011;2982;42.684;23.356;2024-01-06T07:33:39;11.37;;;6.10;;
5912;SDS011;2982;42.684;23.356;2024-01-06T07:36:04;7.63;;;5.30;;
5912;SDS011;2982;42.684;23.356;2024-01-06T07:38:31;8.73;;;5.30;;
5912;SDS011;2982;42.684;23.356;2024-01-06T08:12:55;10.32;;;5.20;;
5912;SDS011;2982;42.684;23.356;2024-01-06T08:15:20;11.03;;;5.93;;
5912;SDS011;2982;42.684;23.356;2024-01-06T08:17:52;7.17;;;5.03;;
5912;SDS011;2982;42.684;23.356;2024-01-06T08:20:37;8.17;;;5.60;;
5912;SDS011;2982;42.684;23.356;2024-01-06T08:23:03;11.47;;;5.93;;
5912;SDS011;2982;42.684;23.356;2024-01-06T08:25:28;15.70;;;7.03;;
5912;SDS011;2982;42.684;23.356;2024-01-06T08:28:03;11.40;;;7.00;;
5912;SDS011;2982;42.684;23.356;2024-01-06T08:33:24;14.70;;;8.47;;
5912;SDS011;2982;42.684;23.356;2024-01-06T08:36:11;21.63;;;9.77;;
5912;SDS011;2982;42.684;23.356;2024-01-06T08:38:55;24.37;;;15.20;;
5912;SDS011;2982;42.684;23.356;2024-01-06T08:41:21;34.93;;;22.13;;
5912;SDS011;2982;42.684;23.356;2024-01-06T08:43:46;41.20;;;24.03;;
5912;SDS011;2982;42.684;23.356;2024-01-06T08:46:11;47.27;;;28.50;;
5912;SDS011;2982;42.684;23.356;2024-01-06T08:48:41;52.03;;;26.43;;
5912;SDS011;2982;42.684;23.356;2024-01-06T08:51:07;35.37;;;19.90;;
5912;SDS011;2982;42.684;23.356;2024-01-06T08:53:33;41.37;;;26.83;;
5912;SDS011;2982;42.684;23.356;2024-01-06T08:55:58;44.67;;;25.37;;
5912;SDS011;2982;42.684;23.356;2024-01-06T08:58:23;47.08;;;25.52;;
5912;SDS011;2982;42.684;23.356;2024-01-06T09:00:48;51.23;;;25.30;;
5912;SDS011;2982;42.684;23.356;2024-01-06T09:03:15;40.60;;;24.60;;
5912;SDS011;2982;42.684;23.356;2024-01-06T09:05:40;43.90;;;24.63;;
5912;SDS011;2982;42.684;23.356;2024-01-06T09:08:06;41.73;;;25.50;;
5912;SDS011;2982;42.684;23.356;2024-01-06T09:10:31;55.07;;;25.50;;
5912;SDS011;2982;42.684;23.356;2024-01-06T09:12:56;41.80;;;23.00;;
5912;SDS011;2982;42.684;23.356;2024-01-06T09:15:22;43.83;;;21.23;;
5912;SDS011;2982;42.684;23.356;2024-01-06T09:17:47;37.83;;;20.60;;
5912;SDS011;2982;42.684;23.356;2024-01-06T09:20:13;40.20;;;19.07;;
5912;SDS011;2982;42.684;23.356;2024-01-06T09:22:38;26.47;;;18.53;;
5912;SDS011;2982;42.684;23.356;2024-01-06T09:25:04;25.17;;;18.10;;
5912;SDS011;2982;42.684;23.356;2024-01-06T09:27:29;28.60;;;18.40;;
5912;SDS011;2982;42.684;23.356;2024-01-06T09:29:56;30.50;;;18.37;;
5912;SDS011;2982;42.684;23.356;2024-01-06T09:32:21;29.60;;;19.20;;
5912;SDS011;2982;42.684;23.356;2024-01-06T09:34:46;28.70;;;17.63;;
5912;SDS011;2982;42.684;23.356;2024-01-06T09:37:11;32.23;;;18.53;;
5912;SDS011;2982;42.684;23.356;2024-01-06T09:39:41;31.65;;;18.75;;
5912;SDS011;2982;42.684;23.356;2024-01-06T09:42:08;24.60;;;16.65;;
5912;SDS011;2982;42.684;23.356;2024-01-06T09:44:34;30.77;;;19.10;;
5912;SDS011;2982;42.684;23.356;2024-01-06T09:47:04;37.17;;;17.30;;
5912;SDS011;2982;42.684;23.356;2024-01-06T09:49:49;48.80;;;19.43;;
5912;SDS011;2982;42.684;23.356;2024-01-06T09:52:20;26.33;;;17.60;;
5912;SDS011;2982;42.684;23.356;2024-01-06T09:54:51;24.23;;;16.23;;
5912;SDS011;2982;42.684;23.356;2024-01-06T09:57:16;30.00;;;14.83;;
5912;SDS011;2982;42.684;23.356;2024-01-06T09:59:43;23.95;;;13.27;;
5912;SDS011;2982;42.684;23.356;2024-01-06T10:02:26;19.30;;;12.37;;
5912;SDS011;2982;42.684;23.356;2024-01-06T10:05:18;23.45;;;13.30;;
5912;SDS011;2982;42.684;23.356;2024-01-06T10:08:06;22.98;;;14.35;;
5912;SDS011;2982;42.684;23.356;2024-01-06T10:10:51;23.47;;;12.03;;
5912;SDS011;2982;42.684;23.356;2024-01-06T10:13:41;20.20;;;12.85;;
5912;SDS011;2982;42.684;23.356;2024-01-06T10:16:29;20.15;;;13.18;;
5912;SDS011;2982;42.684;23.356;2024-01-06T10:19:24;29.63;;;12.13;;
5912;SDS011;2982;42.684;23.356;2024-01-06T10:22:11;23.77;;;13.32;;
5912;SDS011;2982;42.684;23.356;2024-01-06T10:24:45;24.63;;;12.98;;
5912;SDS011;2982;42.684;23.356;2024-01-06T10:27:10;26.90;;;16.60;;
5912;SDS011;2982;42.684;23.356;2024-01-06T10:29:36;27.75;;;14.85;;
5912;SDS011;2982;42.684;23.356;2024-01-06T10:32:02;27.90;;;15.87;;
5912;SDS011;2982;42.684;23.356;2024-01-06T10:34:27;23.33;;;15.48;;
5912;SDS011;2982;42.684;23.356;2024-01-06T10:36:53;29.45;;;15.57;;
5912;SDS011;2982;42.684;23.356;2024-01-06T10:39:19;33.60;;;16.83;;
5912;SDS011;2982;42.684;23.356;2024-01-06T10:41:45;26.60;;;15.52;;
5912;SDS011;2982;42.684;23.356;2024-01-06T10:44:11;29.07;;;16.27;;
5912;SDS011;2982;42.684;23.356;2024-01-06T10:46:36;35.58;;;17.67;;
5912;SDS011;2982;42.684;23.356;2024-01-06T10:49:02;23.25;;;14.32;;
5912;SDS011;2982;42.684;23.356;2024-01-06T10:51:30;19.70;;;14.90;;
5912;SDS011;2982;42.684;23.356;2024-01-06T10:53:57;24.35;;;14.52;;
5912;SDS011;2982;42.684;23.356;2024-01-06T10:56:22;21.20;;;11.63;;
5912;SDS011;2982;42.684;23.356;2024-01-06T10:58:53;14.40;;;10.57;;
5912;SDS011;2982;42.684;23.356;2024-01-06T11:01:21;8.85;;;7.85;;
5912;SDS011;2982;42.684;23.356;2024-01-06T11:03:46;15.27;;;9.05;;
5912;SDS011;2982;42.684;23.356;2024-01-06T11:06:12;19.63;;;8.43;;
5912;SDS011;2982;42.684;23.356;2024-01-06T11:08:42;10.68;;;9.05;;
5912;SDS011;2982;42.684;23.356;2024-01-06T11:11:20;11.13;;;8.88;;
5912;SDS011;2982;42.684;23.356;2024-01-06T11:13:46;12.63;;;8.90;;
5912;SDS011;2982;42.684;23.356;2024-01-06T11:16:11;14.23;;;9.32;;
5912;SDS011;2982;42.684;23.356;2024-01-06T11:18:37;13.55;;;8.95;;
5912;SDS011;2982;42.684;23.356;2024-01-06T11:23:44;16.75;;;8.45;;
5912;SDS011;2982;42.684;23.356;2024-01-06T11:26:09;7.72;;;7.00;;
5912;SDS011;2982;42.684;23.356;2024-01-06T11:28:47;15.68;;;6.60;;
5912;SDS011;2982;42.684;23.356;2024-01-06T11:31:13;10.68;;;7.80;;
5912;SDS011;2982;42.684;23.356;2024-01-06T11:33:42;9.75;;;7.15;;
5912;SDS011;2982;42.684;23.356;2024-01-06T11:36:10;11.35;;;5.95;;
5912;SDS011;2982;42.684;23.356;2024-01-06T11:38:39;7.88;;;6.28;;
5912;SDS011;2982;42.684;23.356;2024-01-06T11:41:08;7.38;;;5.35;;
5912;SDS011;2982;42.684;23.356;2024-01-06T11:43:37;9.57;;;6.88;;
5912;SDS011;2982;42.684;23.356;2024-01-06T11:46:03;6.07;;;5.45;;
5912;SDS011;2982;42.684;23.356;2024-01-06T11:48:30;9.23;;;7.18;;
5912;SDS011;2982;42.684;23.356;2024-01-06T11:50:56;9.02;;;6.30;;
5912;SDS011;2982;42.684;23.356;2024-01-06T11:53:21;11.40;;;6.95;;
5912;SDS011;2982;42.684;23.356;2024-01-06T11:55:48;7.65;;;6.53;;
5912;SDS011;2982;42.684;23.356;2024-01-06T11:58:15;7.22;;;5.75;;
5912;SDS011;2982;42.684;23.356;2024-01-06T12:00:41;7.47;;;5.72;;
5912;SDS011;2982;42.684;23.356;2024-01-06T12:03:07;12.13;;;7.30;;
5912;SDS011;2982;42.684;23.356;2024-01-06T12:05:32;7.50;;;6.45;;
5912;SDS011;2982;42.684;23.356;2024-01-06T12:07:58;15.93;;;6.97;;
5912;SDS011;2982;42.684;23.356;2024-01-06T12:10:24;9.85;;;6.85;;
5912;SDS011;2982;42.684;23.356;2024-01-06T12:12:57;15.32;;;7.70;;
5912;SDS011;2982;42.684;23.356;2024-01-06T12:15:26;17.35;;;8.15;;
5912;SDS011;2982;42.684;23.356;2024-01-06T12:17:51;11.18;;;7.10;;
5912;SDS011;2982;42.684;23.356;2024-01-06T12:20:16;11.68;;;6.10;;
5912;SDS011;2982;42.684;23.356;2024-01-06T12:22:42;9.68;;;7.35;;
5912;SDS011;2982;42.684;23.356;2024-01-06T12:25:08;10.48;;;6.97;;
5912;SDS011;2982;42.684;23.356;2024-01-06T12:27:33;8.15;;;6.05;;
5912;SDS011;2982;42.684;23.356;2024-01-06T12:29:59;7.22;;;6.22;;
5912;SDS011;2982;42.684;23.356;2024-01-06T12:32:24;6.57;;;5.68;;
5912;SDS011;2982;42.684;23.356;2024-01-06T12:34:49;12.82;;;6.50;;
5912;SDS011;2982;42.684;23.356;2024-01-06T12:37:14;9.30;;;5.97;;
5912;SDS011;2982;42.684;23.356;2024-01-06T12:39:40;7.88;;;6.50;;
5912;SDS011;2982;42.684;23.356;2024-01-06T12:42:05;7.93;;;6.40;;
5912;SDS011;2982;42.684;23.356;2024-01-06T12:44:31;9.75;;;6.00;;
5912;SDS011;2982;42.684;23.356;2024-01-06T12:46:56;7.47;;;5.65;;
5912;SDS011;2982;42.684;23.356;2024-01-06T12:49:21;10.95;;;6.22;;
5912;SDS011;2982;42.684;23.356;2024-01-06T12:51:48;7.97;;;5.40;;
5912;SDS011;2982;42.684;23.356;2024-01-06T12:54:13;16.17;;;7.28;;
5912;SDS011;2982;42.684;23.356;2024-01-06T12:56:40;9.00;;;7.32;;
5912;SDS011;2982;42.684;23.356;2024-01-06T12:59:05;9.43;;;7.00;;
5912;SDS011;2982;42.684;23.356;2024-01-06T13:01:30;8.60;;;6.72;;
5912;SDS011;2982;42.684;23.356;2024-01-06T13:03:55;11.68;;;6.38;;
5912;SDS011;2982;42.684;23.356;2024-01-06T13:06:20;11.13;;;6.68;;
5912;SDS011;2982;42.684;23.356;2024-01-06T13:54:31;5.65;;;4.60;;
5912;SDS011;2982;42.684;23.356;2024-01-06T13:56:58;5.07;;;3.67;;
5912;SDS011;2982;42.684;23.356;2024-01-06T13:59:23;10.43;;;4.53;;
5912;SDS011;2982;42.684;23.356;2024-01-06T14:01:49;7.45;;;3.63;;
5912;SDS011;2982;42.684;23.356;2024-01-06T14:04:18;6.55;;;3.78;;
5912;SDS011;2982;42.684;23.356;2024-01-06T14:06:44;5.65;;;4.38;;
5912;SDS011;2982;42.684;23.356;2024-01-06T14:09:09;5.65;;;4.38;;
5912;SDS011;2982;42.684;23.356;2024-01-06T14:11:36;8.43;;;4.57;;
5912;SDS011;2982;42.684;23.356;2024-01-06T14:14:01;10.63;;;6.15;;
5912;SDS011;2982;42.684;23.356;2024-01-06T14:16:29;6.68;;;4.43;;
5912;SDS011;2982;42.684;23.356;2024-01-06T14:18:55;15.05;;;6.82;;
5912;SDS011;2982;42.684;23.356;2024-01-06T14:21:20;11.15;;;7.00;;
5912;SDS011;2982;42.684;23.356;2024-01-06T14:23:46;8.38;;;5.80;;
5912;SDS011;2982;42.684;23.356;2024-01-06T14:26:12;13.23;;;7.30;;
5912;SDS011;2982;42.684;23.356;2024-01-06T14:28:37;9.40;;;6.38;;
5912;SDS011;2982;42.684;23.356;2024-01-06T14:31:03;15.10;;;6.82;;
5912;SDS011;2982;42.684;23.356;2024-01-06T14:33:28;6.57;;;5.97;;
5912;SDS011;2982;42.684;23.356;2024-01-06T14:35:54;16.77;;;6.70;;
5912;SDS011;2982;42.684;23.356;2024-01-06T14:38:20;12.27;;;6.60;;
5912;SDS011;2982;42.684;23.356;2024-01-06T14:40:45;12.95;;;7.90;;
5912;SDS011;2982;42.684;23.356;2024-01-06T14:43:11;12.05;;;7.40;;
5912;SDS011;2982;42.684;23.356;2024-01-06T14:45:37;10.95;;;7.30;;
5912;SDS011;2982;42.684;23.356;2024-01-06T14:48:02;11.70;;;6.45;;
5912;SDS011;2982;42.684;23.356;2024-01-06T14:50:28;16.80;;;7.60;;
5912;SDS011;2982;42.684;23.356;2024-01-06T14:52:57;19.35;;;7.10;;
5912;SDS011;2982;42.684;23.356;2024-01-06T14:55:22;17.50;;;7.45;;
5912;SDS011;2982;42.684;23.356;2024-01-06T14:57:48;21.08;;;8.07;;
5912;SDS011;2982;42.684;23.356;2024-01-06T15:00:13;17.52;;;7.20;;
5912;SDS011;2982;42.684;23.356;2024-01-06T15:02:39;13.57;;;5.47;;
5912;SDS011;2982;42.684;23.356;2024-01-06T15:05:05;10.77;;;5.30;;
5912;SDS011;2982;42.684;23.356;2024-01-06T15:07:31;13.60;;;5.47;;
5912;SDS011;2982;42.684;23.356;2024-01-06T15:10:01;11.60;;;5.47;;
5912;SDS011;2982;42.684;23.356;2024-01-06T15:12:27;10.40;;;5.45;;
5912;SDS011;2982;42.684;23.356;2024-01-06T15:14:53;14.10;;;6.07;;
5912;SDS011;2982;42.684;23.356;2024-01-06T15:17:22;25.02;;;7.32;;
5912;SDS011;2982;42.684;23.356;2024-01-06T15:19:48;15.45;;;6.50;;
5912;SDS011;2982;42.684;23.356;2024-01-06T15:22:13;10.73;;;6.10;;
5912;SDS011;2982;42.684;23.356;2024-01-06T15:24:44;17.40;;;7.35;;
5912;SDS011;2982;42.684;23.356;2024-01-06T15:27:10;13.07;;;6.72;;
5912;SDS011;2982;42.684;23.356;2024-01-06T15:29:35;21.00;;;7.97;;
5912;SDS011;2982;42.684;23.356;2024-01-06T15:32:02;11.23;;;7.00;;
5912;SDS011;2982;42.684;23.356;2024-01-06T15:34:28;9.65;;;6.63;;
5912;SDS011;2982;42.684;23.356;2024-01-06T15:37:03;16.80;;;7.65;;
5912;SDS011;2982;42.684;23.356;2024-01-06T15:39:28;18.63;;;7.43;;
5912;SDS011;2982;42.684;23.356;2024-01-06T15:41:54;11.88;;;7.30;;
5912;SDS011;2982;42.684;23.356;2024-01-06T15:44:37;20.00;;;8.82;;
5912;SDS011;2982;42.684;23.356;2024-01-06T15:47:02;16.73;;;7.70;;
5912;SDS011;2982;42.684;23.356;2024-01-06T15:49:28;17.00;;;8.52;;
5912;SDS011;2982;42.684;23.356;2024-01-06T15:51:54;17.43;;;8.73;;
5912;SDS011;2982;42.684;23.356;2024-01-06T15:54:20;33.83;;;9.98;;
5912;SDS011;2982;42.684;23.356;2024-01-06T15:56:45;17.73;;;9.75;;
5912;SDS011;2982;42.684;23.356;2024-01-06T15:59:11;23.97;;;12.10;;
5912;SDS011;2982;42.684;23.356;2024-01-06T16:01:36;21.87;;;8.03;;
5912;SDS011;2982;42.684;23.356;2024-01-06T16:04:02;24.27;;;8.57;;
5912;SDS011;2982;42.684;23.356;2024-01-06T16:06:27;26.45;;;9.07;;